createdAt,value
2018-12-22T00:00:53.827Z,100.00
2018-12-22T00:03:23.460Z,100.00
2018-12-22T00:05:53.260Z,100.00
2018-12-22T00:08:22.908Z,100.00
2018-12-22T00:10:52.561Z,100.00
2018-12-22T00:13:22.387Z,100.00
2018-12-22T00:15:52.007Z,100.00
2018-12-22T00:18:21.708Z,100.00
2018-12-22T00:20:51.410Z,100.00
2018-12-22T00:23:21.105Z,100.00
2018-12-22T00:25:50.842Z,100.00
2018-12-22T00:28:22.341Z,100.00
2018-12-22T00:30:52.207Z,100.00
2018-12-22T00:33:21.919Z,100.00
2018-12-22T00:35:51.433Z,100.00
2018-12-22T00:38:21.092Z,100.00
2018-12-22T00:40:50.925Z,100.00
2018-12-22T00:43:20.856Z,100.00
2018-12-22T00:45:50.505Z,100.00
2018-12-22T00:48:20.110Z,100.00
2018-12-22T00:50:49.707Z,100.00
2018-12-22T00:53:19.379Z,100.00
2018-12-22T00:55:49.235Z,100.00
2018-12-22T00:58:18.883Z,100.00
2018-12-22T01:00:48.511Z,100.00
2018-12-22T01:03:19.202Z,100.00
2018-12-22T01:05:50.050Z,100.00
2018-12-22T01:08:19.673Z,100.00
2018-12-22T01:10:49.450Z,100.00
2018-12-22T01:13:19.260Z,100.00
2018-12-22T01:15:48.994Z,100.00
2018-12-22T01:18:18.808Z,100.00
2018-12-22T01:20:48.358Z,99.94
2018-12-22T01:23:17.977Z,99.68
2018-12-22T01:25:47.831Z,99.93
2018-12-22T01:28:17.446Z,99.84
2018-12-22T01:30:47.196Z,99.96
2018-12-22T01:33:16.894Z,99.92
2018-12-22T01:35:46.678Z,100.00
2018-12-22T01:38:16.210Z,100.00
2018-12-22T01:40:45.786Z,100.00
2018-12-22T01:43:15.558Z,100.00
2018-12-22T01:45:45.175Z,100.00
2018-12-22T01:48:14.744Z,100.00
2018-12-22T01:50:44.412Z,100.00
2018-12-22T01:53:13.892Z,100.00
2018-12-22T01:55:43.658Z,100.00
2018-12-22T01:58:13.152Z,100.00
2018-12-22T02:00:42.873Z,100.00
2018-12-22T02:03:12.394Z,100.00
2018-12-22T02:05:41.886Z,100.00
2018-12-22T02:08:11.516Z,100.00
2018-12-22T02:10:41.161Z,99.84
2018-12-22T02:13:10.872Z,99.88
2018-12-22T02:15:40.675Z,99.77
2018-12-22T02:18:10.378Z,99.89
2018-12-22T02:20:39.937Z,100.00
2018-12-22T02:23:09.604Z,99.85
2018-12-22T02:25:39.171Z,100.00
2018-12-22T02:28:08.989Z,100.00
2018-12-22T02:30:38.760Z,99.91
2018-12-22T02:33:08.379Z,99.62
2018-12-22T02:35:38.242Z,98.94
2018-12-22T02:38:07.879Z,99.52
2018-12-22T02:40:37.605Z,98.82
2018-12-22T02:43:07.282Z,98.87
2018-12-22T02:45:37.190Z,99.58
2018-12-22T02:48:06.908Z,99.56
2018-12-22T02:50:36.508Z,99.51
2018-12-22T02:53:06.193Z,99.29
2018-12-22T02:55:35.692Z,99.36
2018-12-22T02:58:05.264Z,99.91
2018-12-22T03:00:35.049Z,100.00
2018-12-22T03:03:04.730Z,100.00
2018-12-22T03:05:34.312Z,100.00
2018-12-22T03:08:03.927Z,100.00
2018-12-22T03:10:34.632Z,100.00
2018-12-22T03:13:04.265Z,100.00
2018-12-22T03:15:34.059Z,99.98
2018-12-22T03:18:03.819Z,99.99
2018-12-22T03:20:33.653Z,100.00
2018-12-22T03:23:03.525Z,100.00
2018-12-22T03:25:33.395Z,99.28
2018-12-22T03:28:03.135Z,99.59
2018-12-22T03:30:33.183Z,99.76
2018-12-22T03:33:02.891Z,100.00
2018-12-22T03:35:33.185Z,100.00
2018-12-22T03:38:02.766Z,100.00
2018-12-22T03:40:32.319Z,99.25
2018-12-22T03:43:01.960Z,100.00
2018-12-22T03:45:31.442Z,100.00
2018-12-22T03:48:00.973Z,100.00
2018-12-22T03:50:30.475Z,100.00
2018-12-22T03:53:00.017Z,100.00
2018-12-22T03:55:29.657Z,100.00
2018-12-22T03:57:59.466Z,100.00
2018-12-22T04:00:29.074Z,100.00
2018-12-22T04:02:58.838Z,100.00
2018-12-22T04:05:28.451Z,100.00
2018-12-22T04:07:58.327Z,100.00
2018-12-22T04:10:27.803Z,100.00
2018-12-22T04:12:57.444Z,100.00
2018-12-22T04:15:26.966Z,100.00
2018-12-22T04:17:56.547Z,100.00
2018-12-22T04:20:26.213Z,100.00
2018-12-22T04:22:55.862Z,100.00
2018-12-22T04:25:25.458Z,100.00
2018-12-22T04:27:55.292Z,100.00
2018-12-22T04:30:24.879Z,100.00
2018-12-22T04:32:54.349Z,100.00
2018-12-22T04:35:23.928Z,100.00
2018-12-22T04:37:53.565Z,100.00
2018-12-22T04:40:23.226Z,100.00
2018-12-22T04:42:52.873Z,100.00
2018-12-22T04:45:22.521Z,100.00
2018-12-22T04:47:52.170Z,100.00
2018-12-22T04:50:21.756Z,100.00
2018-12-22T04:52:51.385Z,100.00
2018-12-22T04:55:20.989Z,100.00
2018-12-22T04:57:50.646Z,100.00
2018-12-22T05:00:20.272Z,100.00
2018-12-22T05:02:50.064Z,100.00
2018-12-22T05:05:19.480Z,100.00
2018-12-22T05:07:48.989Z,100.00
2018-12-22T05:10:18.503Z,100.00
2018-12-22T05:12:48.200Z,100.00
2018-12-22T05:15:17.704Z,100.00
2018-12-22T05:17:47.352Z,100.00
2018-12-22T05:20:17.100Z,100.00
2018-12-22T05:22:46.706Z,100.00
2018-12-22T05:25:16.332Z,100.00
2018-12-22T05:27:45.924Z,100.00
2018-12-22T05:30:15.495Z,100.00
2018-12-22T05:32:45.264Z,100.00
2018-12-22T05:35:15.186Z,100.00
2018-12-22T05:37:44.749Z,100.00
2018-12-22T05:40:14.420Z,100.00
2018-12-22T05:42:44.067Z,100.00
2018-12-22T05:45:13.686Z,100.00
2018-12-22T05:47:43.183Z,100.00
2018-12-22T05:50:12.983Z,100.00
2018-12-22T05:52:42.816Z,100.00
2018-12-22T05:55:12.480Z,100.00
2018-12-22T05:57:42.127Z,100.00
2018-12-22T06:00:11.828Z,100.00
2018-12-22T06:02:41.630Z,100.00
2018-12-22T06:05:12.174Z,100.00
2018-12-22T06:07:41.701Z,100.00
2018-12-22T06:10:11.215Z,100.00
2018-12-22T06:12:40.719Z,100.00
2018-12-22T06:15:10.389Z,100.00
2018-12-22T06:17:40.110Z,100.00
2018-12-22T06:20:11.042Z,100.00
2018-12-22T06:22:40.751Z,100.00
2018-12-22T06:25:10.237Z,100.00
2018-12-22T06:27:39.749Z,100.00
2018-12-22T06:30:09.619Z,100.00
2018-12-22T06:32:40.437Z,100.00
2018-12-22T06:35:10.025Z,100.00
2018-12-22T06:37:39.842Z,100.00
2018-12-22T06:40:09.356Z,100.00
2018-12-22T06:42:38.951Z,100.00
2018-12-22T06:45:08.620Z,100.00
2018-12-22T06:47:38.351Z,100.00
2018-12-22T06:50:08.137Z,100.00
2018-12-22T06:52:37.933Z,100.00
2018-12-22T06:55:08.507Z,100.00
2018-12-22T06:57:38.094Z,100.00
2018-12-22T07:00:08.444Z,100.00
2018-12-22T07:02:38.071Z,100.00
2018-12-22T07:05:07.952Z,100.00
2018-12-22T07:07:37.422Z,100.00
2018-12-22T07:10:08.679Z,100.00
2018-12-22T07:12:38.226Z,100.00
2018-12-22T07:15:08.241Z,100.00
2018-12-22T07:17:37.906Z,100.00
2018-12-22T07:20:07.972Z,100.00
2018-12-22T07:22:37.705Z,100.00
2018-12-22T07:25:07.843Z,100.00
2018-12-22T07:27:37.681Z,100.00
2018-12-22T07:30:09.140Z,100.00
2018-12-22T07:32:38.815Z,100.00
2018-12-22T07:35:08.378Z,100.00
2018-12-22T07:37:38.107Z,100.00
2018-12-22T07:40:07.751Z,100.00
2018-12-22T07:42:39.372Z,100.00
2018-12-22T07:45:09.153Z,100.00
2018-12-22T07:47:38.723Z,100.00
2018-12-22T07:50:08.403Z,100.00
2018-12-22T07:52:38.246Z,100.00
2018-12-22T07:55:07.717Z,100.00
2018-12-22T07:57:37.418Z,100.00
2018-12-22T08:00:07.387Z,100.00
2018-12-22T08:02:37.240Z,100.00
2018-12-22T08:05:07.233Z,100.00
2018-12-22T08:07:37.035Z,100.00
2018-12-22T08:10:07.352Z,100.00
2018-12-22T08:12:37.121Z,100.00
2018-12-22T08:15:07.087Z,100.00
2018-12-22T08:17:37.405Z,100.00
2018-12-22T08:20:07.448Z,100.00
2018-12-22T08:22:37.030Z,100.00
2018-12-22T08:25:07.150Z,100.00
2018-12-22T08:27:36.971Z,100.00
2018-12-22T08:30:07.671Z,100.00
2018-12-22T08:32:37.495Z,100.00
2018-12-22T08:35:07.218Z,99.28
2018-12-22T08:37:36.935Z,98.88
2018-12-22T08:40:07.977Z,99.69
2018-12-22T08:42:37.688Z,98.84
2018-12-22T08:45:08.496Z,98.94
2018-12-22T08:47:38.154Z,98.60
2018-12-22T08:50:09.631Z,98.47
2018-12-22T08:52:56.367Z,98.15
2018-12-22T08:55:26.309Z,96.95
2018-12-22T08:57:56.105Z,97.09
2018-12-22T09:00:25.467Z,98.45
2018-12-22T09:02:55.210Z,98.71
2018-12-22T09:05:25.107Z,97.00
2018-12-22T09:07:54.957Z,96.46
2018-12-22T09:10:24.429Z,95.21
2018-12-22T09:12:54.076Z,92.77
2018-12-22T09:15:24.667Z,93.46
2018-12-22T09:17:54.202Z,93.67
2018-12-22T09:20:23.765Z,93.44
2018-12-22T09:22:53.411Z,93.02
2018-12-22T09:25:23.095Z,92.73
2018-12-22T09:27:53.357Z,92.01
2018-12-22T09:30:23.121Z,91.83
2018-12-22T09:32:52.816Z,91.15
2018-12-22T09:35:22.440Z,90.59
2018-12-22T09:37:52.073Z,91.01
2018-12-22T09:40:21.789Z,90.98
2018-12-22T09:42:51.244Z,91.44
2018-12-22T09:45:20.870Z,91.44
2018-12-22T09:47:50.342Z,91.90
2018-12-22T09:50:20.208Z,93.44
2018-12-22T09:52:49.592Z,93.04
2018-12-22T09:55:19.197Z,92.53
2018-12-22T09:57:48.786Z,93.03
2018-12-22T10:00:18.446Z,92.26
2018-12-22T10:02:48.068Z,91.55
2018-12-22T10:05:17.777Z,92.21
2018-12-22T10:07:47.590Z,92.45
2018-12-22T10:10:18.726Z,92.21
2018-12-22T10:12:48.587Z,93.23
2018-12-22T10:15:18.224Z,93.61
2018-12-22T10:17:47.734Z,93.78
2018-12-22T10:20:17.765Z,93.16
2018-12-22T10:22:47.532Z,92.40
2018-12-22T10:25:17.825Z,92.51
2018-12-22T10:27:47.444Z,92.74
2018-12-22T10:30:18.224Z,93.75
2018-12-22T10:32:47.840Z,92.87
2018-12-22T10:35:23.626Z,93.34
2018-12-22T10:37:53.427Z,92.47
2018-12-22T10:40:22.944Z,91.54
2018-12-22T10:42:52.569Z,90.60
2018-12-22T10:45:22.106Z,89.91
2018-12-22T10:47:51.817Z,88.95
2018-12-22T10:50:21.383Z,88.09
2018-12-22T10:52:51.110Z,86.06
2018-12-22T10:55:20.961Z,86.53
2018-12-22T10:57:50.760Z,88.05
2018-12-22T11:00:20.566Z,88.05
2018-12-22T11:02:50.260Z,88.16
2018-12-22T11:05:19.999Z,86.52
2018-12-22T11:07:50.034Z,87.19
2018-12-22T11:10:26.448Z,86.89
2018-12-22T11:12:59.244Z,86.90
2018-12-22T11:15:29.025Z,87.11
2018-12-22T11:17:58.612Z,88.44
2018-12-22T11:20:28.128Z,87.68
2018-12-22T11:22:57.799Z,86.71
2018-12-22T11:25:27.845Z,87.24
2018-12-22T11:27:57.499Z,87.22
2018-12-22T11:30:31.341Z,87.33
2018-12-22T11:33:03.280Z,87.31
2018-12-22T11:35:32.880Z,87.33
2018-12-22T11:38:02.681Z,88.51
2018-12-22T11:40:32.188Z,88.18
2018-12-22T11:43:01.705Z,86.96
2018-12-22T11:45:31.291Z,88.01
2018-12-22T11:48:13.480Z,88.41
2018-12-22T11:50:43.239Z,86.39
2018-12-22T11:53:13.080Z,86.27
2018-12-22T11:55:42.958Z,87.34
2018-12-22T11:58:12.623Z,88.46
2018-12-22T12:00:42.277Z,88.72
2018-12-22T12:03:12.327Z,86.78
2018-12-22T12:05:41.964Z,86.48
2018-12-22T12:08:11.529Z,86.98
2018-12-22T12:10:41.361Z,85.67
2018-12-22T12:13:11.190Z,83.39
2018-12-22T12:16:19.904Z,85.91
2018-12-22T12:18:59.383Z,84.29
2018-12-22T12:21:29.443Z,84.41
2018-12-22T12:24:00.466Z,84.46
2018-12-22T12:26:30.442Z,85.34
2018-12-22T12:29:01.512Z,85.21
2018-12-22T12:31:31.294Z,84.85
2018-12-22T12:34:00.845Z,86.52
2018-12-22T12:36:30.435Z,85.08
2018-12-22T12:39:00.141Z,84.07
2018-12-22T12:41:30.128Z,84.54
2018-12-22T12:43:59.713Z,84.38
2018-12-22T12:46:45.500Z,84.45
2018-12-22T12:49:15.500Z,84.47
2018-12-22T12:51:45.107Z,84.24
2018-12-22T12:54:14.805Z,85.04
2018-12-22T12:56:50.799Z,84.60
2018-12-22T12:59:20.531Z,85.66
2018-12-22T13:01:50.413Z,86.59
2018-12-22T13:04:19.989Z,87.31
2018-12-22T13:06:49.741Z,87.25
2018-12-22T13:09:19.401Z,87.74
2018-12-22T13:11:49.759Z,86.99
2018-12-22T13:14:21.865Z,87.74
2018-12-22T13:16:51.341Z,87.23
2018-12-22T13:19:21.564Z,87.96
2018-12-22T13:21:52.936Z,86.96
2018-12-22T13:24:22.474Z,86.01
2018-12-22T13:26:52.055Z,86.42
2018-12-22T13:29:21.664Z,87.43
2018-12-22T13:31:51.229Z,88.23
2018-12-22T13:34:20.818Z,86.94
2018-12-22T13:36:50.489Z,87.96
2018-12-22T13:39:27.658Z,87.72
2018-12-22T13:41:57.255Z,88.08
2018-12-22T13:44:28.015Z,86.74
2018-12-22T13:46:57.569Z,87.32
2018-12-22T13:49:27.701Z,88.07
2018-12-22T13:51:57.818Z,88.33
2018-12-22T13:54:27.730Z,89.95
2018-12-22T13:56:57.453Z,90.85
2018-12-22T13:59:27.114Z,90.74
2018-12-22T14:02:01.291Z,90.35
2018-12-22T14:04:32.269Z,91.30
2018-12-22T14:07:02.811Z,91.36
2018-12-22T14:09:32.628Z,92.64
2018-12-22T14:12:02.165Z,93.21
2018-12-22T14:14:35.201Z,92.97
2018-12-22T14:17:15.261Z,92.43
2018-12-22T14:19:49.384Z,92.64
2018-12-22T14:22:19.114Z,91.36
2018-12-22T14:24:50.836Z,92.80
2018-12-22T14:27:20.559Z,93.40
2018-12-22T14:29:51.251Z,93.81
2018-12-22T14:32:26.846Z,93.28
2018-12-22T14:35:59.400Z,93.71
2018-12-22T14:38:29.770Z,93.48
2018-12-22T14:40:59.397Z,94.26
2018-12-22T14:43:29.093Z,95.15
2018-12-22T14:47:01.692Z,96.10
2018-12-22T14:49:31.297Z,97.47
2018-12-22T14:52:00.952Z,97.94
2018-12-22T14:54:30.522Z,97.58
2018-12-22T14:57:00.213Z,97.31
2018-12-22T14:59:29.749Z,97.74
2018-12-22T15:02:01.180Z,97.83
2018-12-22T15:04:31.190Z,97.65
2018-12-22T15:07:00.851Z,98.02
2018-12-22T15:09:30.506Z,97.86
2018-12-22T15:12:00.175Z,98.23
2018-12-22T15:14:29.734Z,98.35
2018-12-22T15:16:59.561Z,97.95
2018-12-22T15:19:29.186Z,98.29
2018-12-22T15:22:01.330Z,98.04
2018-12-22T15:24:30.992Z,98.89
2018-12-22T15:27:00.369Z,99.15
2018-12-22T15:29:29.888Z,99.38
2018-12-22T15:31:59.532Z,100.00
2018-12-22T15:34:29.157Z,100.00
2018-12-22T15:36:58.893Z,99.92
2018-12-22T15:39:28.662Z,100.00
2018-12-22T15:41:58.284Z,100.00
2018-12-22T15:44:27.960Z,100.00
2018-12-22T15:46:57.644Z,100.00
2018-12-22T15:49:27.609Z,100.00
2018-12-22T15:51:57.370Z,100.00
2018-12-22T15:54:26.810Z,100.00
2018-12-22T15:56:56.414Z,100.00
2018-12-22T15:59:26.180Z,100.00
2018-12-22T16:01:55.749Z,100.00
2018-12-22T16:04:25.526Z,100.00
2018-12-22T16:06:55.251Z,100.00
2018-12-22T16:09:24.817Z,100.00
2018-12-22T16:11:54.507Z,100.00
2018-12-22T16:14:24.150Z,100.00
2018-12-22T16:16:53.833Z,100.00
2018-12-22T16:19:23.608Z,100.00
2018-12-22T16:21:53.345Z,100.00
2018-12-22T16:24:23.284Z,100.00
2018-12-22T16:26:53.304Z,100.00
2018-12-22T16:29:31.733Z,99.59
2018-12-22T16:32:01.466Z,99.65
2018-12-22T16:34:31.083Z,99.77
2018-12-22T16:37:00.676Z,99.32
2018-12-22T16:39:30.297Z,99.38
2018-12-22T16:42:00.312Z,99.48
2018-12-22T16:44:29.918Z,99.26
2018-12-22T16:46:59.792Z,99.05
2018-12-22T16:49:29.500Z,99.19
2018-12-22T16:51:59.138Z,98.95
2018-12-22T16:54:28.808Z,98.85
2018-12-22T16:56:58.463Z,98.90
2018-12-22T16:59:29.633Z,98.66
2018-12-22T17:02:06.528Z,98.78
2018-12-22T17:04:36.651Z,99.05
2018-12-22T17:07:06.290Z,99.15
2018-12-22T17:09:35.857Z,99.45
2018-12-22T17:12:05.527Z,98.91
2018-12-22T17:14:35.100Z,98.67
2018-12-22T17:17:05.049Z,98.66
2018-12-22T17:19:34.611Z,98.76
2018-12-22T17:22:14.248Z,98.46
2018-12-22T17:24:50.953Z,99.32
2018-12-22T17:27:20.498Z,100.00
2018-12-22T17:29:49.974Z,99.25
2018-12-22T17:32:19.532Z,98.36
2018-12-22T17:34:49.304Z,99.71
2018-12-22T17:37:19.306Z,99.67
2018-12-22T17:39:53.537Z,100.00
2018-12-22T17:42:21.022Z,100.00
2018-12-22T17:44:50.513Z,100.00
2018-12-22T17:47:20.326Z,100.00
2018-12-22T17:49:49.766Z,100.00
2018-12-22T17:52:19.478Z,100.00
2018-12-22T17:54:49.210Z,100.00
2018-12-22T17:57:18.762Z,100.00
2018-12-22T17:59:48.403Z,100.00
2018-12-22T18:02:18.058Z,100.00
2018-12-22T18:04:47.646Z,99.49
2018-12-22T18:07:17.213Z,100.00
2018-12-22T18:09:46.749Z,100.00
2018-12-22T18:12:16.318Z,100.00
2018-12-22T18:14:45.964Z,100.00
2018-12-22T18:17:15.798Z,100.00
2018-12-22T18:19:45.379Z,100.00
2018-12-22T18:22:15.101Z,100.00
2018-12-22T18:24:44.636Z,100.00
2018-12-22T18:27:14.027Z,100.00
2018-12-22T18:29:43.792Z,100.00
2018-12-22T18:32:13.488Z,100.00
2018-12-22T18:34:43.262Z,100.00
2018-12-22T18:37:12.859Z,100.00
2018-12-22T18:39:42.566Z,100.00
2018-12-22T18:42:12.208Z,100.00
2018-12-22T18:44:42.078Z,100.00
2018-12-22T18:47:11.716Z,100.00
2018-12-22T18:49:41.205Z,100.00
2018-12-22T18:52:10.807Z,100.00
2018-12-22T18:54:41.057Z,100.00
2018-12-22T18:57:10.553Z,100.00
2018-12-22T18:59:40.048Z,100.00
2018-12-22T19:02:09.714Z,100.00
2018-12-22T19:04:39.278Z,100.00
2018-12-22T19:07:08.924Z,100.00
2018-12-22T19:09:39.965Z,100.00
2018-12-22T19:12:16.214Z,100.00
2018-12-22T19:15:00.255Z,100.00
2018-12-22T19:17:29.949Z,100.00
2018-12-22T19:19:59.681Z,100.00
2018-12-22T19:22:29.403Z,100.00
2018-12-22T19:24:59.077Z,100.00
2018-12-22T19:27:28.672Z,100.00
2018-12-22T19:29:58.219Z,100.00
2018-12-22T19:32:27.873Z,100.00
2018-12-22T19:34:57.633Z,100.00
2018-12-22T19:37:27.282Z,100.00
2018-12-22T19:39:56.685Z,100.00
2018-12-22T19:42:26.376Z,100.00
2018-12-22T19:44:55.956Z,100.00
2018-12-22T19:47:25.527Z,100.00
2018-12-22T19:49:55.048Z,100.00
2018-12-22T19:52:24.584Z,100.00
2018-12-22T19:54:54.340Z,100.00
2018-12-22T19:57:24.375Z,100.00
2018-12-22T19:59:54.044Z,100.00
2018-12-22T20:02:23.628Z,100.00
2018-12-22T20:04:53.369Z,100.00
2018-12-22T20:07:22.983Z,100.00
2018-12-22T20:09:52.795Z,100.00
2018-12-22T20:12:22.488Z,100.00
2018-12-22T20:14:52.002Z,100.00
2018-12-22T20:17:21.560Z,100.00
2018-12-22T20:19:51.223Z,100.00
2018-12-22T20:22:20.805Z,100.00
2018-12-22T20:24:50.537Z,100.00
2018-12-22T20:27:20.223Z,100.00
2018-12-22T20:29:49.988Z,100.00
2018-12-22T20:32:19.515Z,100.00
2018-12-22T20:34:49.112Z,100.00
2018-12-22T20:37:18.869Z,100.00
2018-12-22T20:39:48.890Z,100.00
2018-12-22T20:42:18.489Z,100.00
2018-12-22T20:44:48.012Z,100.00
2018-12-22T20:47:17.578Z,100.00
2018-12-22T20:49:47.333Z,100.00
2018-12-22T20:52:17.019Z,100.00
2018-12-22T20:54:46.634Z,100.00
2018-12-22T20:57:16.170Z,100.00
2018-12-22T20:59:46.567Z,100.00
2018-12-22T21:02:16.142Z,100.00
2018-12-22T21:04:45.833Z,100.00
2018-12-22T21:07:15.720Z,100.00
2018-12-22T21:09:45.414Z,100.00
2018-12-22T21:12:14.931Z,100.00
2018-12-22T21:14:44.436Z,100.00
2018-12-22T21:17:14.080Z,100.00
2018-12-22T21:19:43.768Z,100.00
2018-12-22T21:22:13.318Z,100.00
2018-12-22T21:24:42.927Z,100.00
2018-12-22T21:27:12.719Z,100.00
2018-12-22T21:29:42.426Z,100.00
2018-12-22T21:32:11.974Z,100.00
2018-12-22T21:34:41.323Z,100.00
2018-12-22T21:37:11.068Z,100.00
2018-12-22T21:39:40.664Z,100.00
2018-12-22T21:42:10.179Z,100.00
2018-12-22T21:44:39.596Z,100.00
2018-12-22T21:47:09.065Z,100.00
2018-12-22T21:49:38.651Z,100.00
2018-12-22T21:52:08.307Z,100.00
2018-12-22T21:54:37.791Z,100.00
2018-12-22T21:57:07.340Z,100.00
2018-12-22T21:59:36.874Z,100.00
2018-12-22T22:02:06.499Z,100.00
2018-12-22T22:04:37.091Z,100.00
2018-12-22T22:07:07.077Z,100.00
2018-12-22T22:09:36.624Z,100.00
2018-12-22T22:12:06.229Z,100.00
2018-12-22T22:14:36.756Z,100.00
2018-12-22T22:17:06.288Z,100.00
2018-12-22T22:19:36.491Z,100.00
2018-12-22T22:22:06.139Z,100.00
2018-12-22T22:24:35.654Z,100.00
2018-12-22T22:27:05.054Z,100.00
2018-12-22T22:29:34.563Z,100.00
2018-12-22T22:32:04.190Z,100.00
2018-12-22T22:34:33.652Z,100.00
2018-12-22T22:37:03.281Z,100.00
2018-12-22T22:39:34.019Z,100.00
2018-12-22T22:42:03.519Z,100.00
2018-12-22T22:44:33.059Z,100.00
2018-12-22T22:47:02.690Z,100.00
2018-12-22T22:49:32.326Z,100.00
2018-12-22T22:52:01.906Z,100.00
2018-12-22T22:54:31.467Z,100.00
2018-12-22T22:57:00.932Z,100.00
2018-12-22T22:59:30.414Z,100.00
2018-12-22T23:01:59.947Z,100.00
2018-12-22T23:04:29.774Z,100.00
2018-12-22T23:06:59.081Z,100.00
2018-12-22T23:09:28.651Z,100.00
2018-12-22T23:11:58.214Z,100.00
2018-12-22T23:14:27.875Z,100.00
2018-12-22T23:16:57.378Z,100.00
2018-12-22T23:19:26.963Z,100.00
2018-12-22T23:21:56.467Z,100.00
2018-12-22T23:24:25.949Z,100.00
2018-12-22T23:26:55.402Z,100.00
2018-12-22T23:29:24.872Z,100.00
2018-12-22T23:31:54.505Z,100.00
2018-12-22T23:34:24.065Z,100.00
2018-12-22T23:36:53.594Z,100.00
2018-12-22T23:39:23.130Z,100.00
2018-12-22T23:41:52.650Z,100.00
2018-12-22T23:44:22.234Z,100.00
2018-12-22T23:46:51.936Z,100.00
2018-12-22T23:49:21.569Z,100.00
2018-12-22T23:51:51.165Z,100.00
2018-12-22T23:54:20.778Z,100.00
2018-12-22T23:56:50.303Z,100.00
2018-12-22T23:59:19.879Z,100.00
